Time;durP1;ratioP1;P1;durP2;ratioP2;P2;SDS_P1;SDS_P2;PMS_P1;PMS_P2;Temp;Humidity;BMP_temperature;BMP_pressure;BME280_temperature;BME280_humidity;BME280_pressure;Samples;Min_cycle;Max_cycle;Signal;HPM_P1;HPM_P2
2023/04/10 00:00:00;;;;;;;9.77;3.28;;;7.60;99.90;;;;;;4950291;28;20042;-69
2023/04/10 00:02:26;;;;;;;6.90;3.28;;;7.70;99.90;;;;;;4974005;28;20094;-69
2023/04/10 00:04:52;;;;;;;5.50;2.35;;;7.70;99.90;;;;;;4971697;28;20118;-68
2023/04/10 00:07:17;;;;;;;5.55;2.38;;;7.50;99.90;;;;;;4974385;28;20486;-69
2023/04/10 00:09:43;;;;;;;5.93;3.03;;;7.50;99.90;;;;;;4971469;28;20047;-68
2023/04/10 00:12:10;;;;;;;4.93;2.63;;;7.40;99.90;;;;;;4975621;28;20034;-69
2023/04/10 00:14:36;;;;;;;5.13;2.72;;;7.40;99.90;;;;;;4972076;28;20102;-69
2023/04/10 00:17:02;;;;;;;8.52;3.33;;;7.40;99.90;;;;;;4973977;28;20648;-69
2023/04/10 00:19:28;;;;;;;7.03;3.17;;;7.30;99.90;;;;;;4972762;28;20030;-69
2023/04/10 00:21:56;;;;;;;8.57;2.70;;;7.30;99.90;;;;;;4973740;28;20027;-69
2023/04/10 00:24:22;;;;;;;6.93;2.92;;;7.40;99.90;;;;;;4972849;28;20042;-69
2023/04/10 00:26:47;;;;;;;6.30;2.88;;;7.40;99.90;;;;;;4972607;28;20034;-69
2023/04/10 00:29:13;;;;;;;5.40;3.38;;;7.50;99.90;;;;;;4957331;28;20072;-69
2023/04/10 00:31:39;;;;;;;7.93;3.42;;;7.50;99.90;;;;;;4971873;28;20105;-69
2023/04/10 00:34:05;;;;;;;5.35;2.80;;;7.70;99.90;;;;;;4975293;28;20031;-68
2023/04/10 00:36:31;;;;;;;5.75;3.40;;;7.80;99.90;;;;;;4971353;28;20511;-69
2023/04/10 00:38:58;;;;;;;4.22;2.58;;;8.10;99.90;;;;;;4975235;28;20113;-68
2023/04/10 00:41:24;;;;;;;6.20;2.95;;;8.00;99.90;;;;;;4970856;28;20053;-69
2023/04/10 00:43:56;;;;;;;7.38;3.00;;;8.00;99.90;;;;;;4975153;28;20030;-69
2023/04/10 00:46:23;;;;;;;7.63;3.40;;;7.90;99.90;;;;;;4970537;28;20491;-68
2023/04/10 00:48:51;;;;;;;6.28;3.10;;;7.80;99.90;;;;;;4973656;28;20058;-68
2023/04/10 00:51:21;;;;;;;8.85;2.85;;;7.90;99.90;;;;;;4965889;28;20078;-68
2023/04/10 00:53:51;;;;;;;6.72;2.55;;;7.90;99.90;;;;;;4971256;28;20114;-69
2023/04/10 00:56:18;;;;;;;7.22;3.63;;;7.90;99.90;;;;;;4970542;28;20089;-69
2023/04/10 00:58:44;;;;;;;9.57;3.95;;;7.90;99.90;;;;;;4973747;28;20025;-69
2023/04/10 01:01:10;;;;;;;6.05;2.60;;;8.00;99.90;;;;;;4965737;28;20506;-69
2023/04/10 01:03:38;;;;;;;6.15;3.35;;;7.90;99.90;;;;;;4970457;28;20034;-69
2023/04/10 01:06:28;;;;;;;5.80;2.83;;;7.60;99.90;;;;;;4965609;28;20039;-69
2023/04/10 01:09:08;;;;;;;6.97;2.92;;;7.60;99.90;;;;;;4977292;28;20038;-70
2023/04/10 01:11:53;;;;;;;7.43;3.40;;;7.60;99.90;;;;;;4968883;28;20027;-70
2023/04/10 01:14:53;;;;;;;6.97;3.05;;;7.50;99.90;;;;;;4955490;28;20039;-68
2023/04/10 01:17:50;;;;;;;6.97;3.22;;;7.40;99.90;;;;;;4968004;28;20019;-69
2023/04/10 01:20:25;;;;;;;6.50;3.25;;;7.40;99.90;;;;;;4968843;28;20046;-69
2023/04/10 01:23:21;;;;;;;9.27;3.55;;;7.40;99.90;;;;;;4974333;28;20039;-70
2023/04/10 01:26:02;;;;;;;7.30;3.85;;;7.40;99.90;;;;;;4962477;28;20070;-69
2023/04/10 01:29:18;;;;;;;5.55;3.08;;;7.40;99.90;;;;;;4957917;28;20058;-69
2023/04/10 01:32:11;;;;;;;10.02;3.40;;;7.40;99.90;;;;;;4959631;28;20052;-69
2023/04/10 01:34:45;;;;;;;7.93;3.92;;;7.50;99.90;;;;;;4954264;28;20034;-69
2023/04/10 01:37:28;;;;;;;7.25;3.22;;;7.70;99.90;;;;;;4980851;28;20018;-70
2023/04/10 01:40:05;;;;;;;7.10;3.35;;;7.80;99.90;;;;;;4953567;28;20151;-69
2023/04/10 01:42:38;;;;;;;7.05;3.33;;;7.70;99.90;;;;;;4963855;28;20499;-70
2023/04/10 01:45:07;;;;;;;7.50;3.38;;;7.60;99.90;;;;;;4956472;28;20084;-69
2023/04/10 01:47:34;;;;;;;6.25;3.20;;;7.50;99.90;;;;;;4972558;28;20026;-70
2023/04/10 01:50:00;;;;;;;9.45;3.25;;;7.40;99.90;;;;;;4969296;28;20066;-70
2023/04/10 01:52:29;;;;;;;7.50;3.40;;;7.40;99.90;;;;;;4972758;28;20391;-70
2023/04/10 01:54:56;;;;;;;7.68;3.58;;;7.40;99.90;;;;;;4968319;28;20470;-70
2023/04/10 01:57:22;;;;;;;6.00;3.08;;;7.40;99.90;;;;;;4973675;28;20030;-70
2023/04/10 01:59:48;;;;;;;7.10;3.30;;;7.30;99.90;;;;;;4967657;28;20575;-70
2023/04/10 02:02:14;;;;;;;6.72;3.25;;;7.20;99.90;;;;;;4981847;28;20042;-70
2023/04/10 02:04:40;;;;;;;8.23;3.75;;;7.10;99.90;;;;;;4968569;28;20023;-70
2023/04/10 02:07:15;;;;;;;6.47;3.13;;;7.10;99.90;;;;;;4973516;28;20493;-70
2023/04/10 02:09:57;;;;;;;10.45;3.42;;;7.10;99.90;;;;;;4968088;28;20024;-70
2023/04/10 02:12:59;;;;;;;8.38;3.45;;;7.10;99.90;;;;;;4966429;28;20027;-70
2023/04/10 02:15:29;;;;;;;6.65;3.58;;;7.00;99.90;;;;;;4973198;28;20031;-70
2023/04/10 02:17:57;;;;;;;9.07;4.28;;;7.00;99.90;;;;;;4972376;28;20030;-70
2023/04/10 02:20:24;;;;;;;7.93;3.83;;;7.00;99.90;;;;;;4967719;28;20027;-70
2023/04/10 02:22:50;;;;;;;4.80;2.97;;;6.90;99.90;;;;;;4969400;28;20047;-70
2023/04/10 02:25:16;;;;;;;8.27;3.20;;;6.80;99.90;;;;;;4959693;28;20046;-70
2023/04/10 02:27:42;;;;;;;5.32;2.45;;;6.50;99.90;;;;;;4971859;28;20042;-69
2023/04/10 02:30:08;;;;;;;6.60;3.30;;;6.50;99.90;;;;;;4970591;28;20372;-68
2023/04/10 02:32:34;;;;;;;6.13;3.13;;;6.40;99.90;;;;;;4973466;28;20030;-70
2023/04/10 02:35:02;;;;;;;6.93;3.47;;;6.20;99.90;;;;;;4969289;28;20039;-70
2023/04/10 02:37:30;;;;;;;9.27;4.18;;;6.20;99.90;;;;;;4971714;28;20039;-70
2023/04/10 02:39:55;;;;;;;11.05;3.80;;;6.10;99.90;;;;;;4968680;28;20089;-69
2023/04/10 02:42:24;;;;;;;7.03;2.72;;;6.00;99.90;;;;;;4971558;28;20094;-69
2023/04/10 02:44:50;;;;;;;9.25;3.58;;;5.90;99.90;;;;;;4968146;28;20047;-70
2023/04/10 02:47:17;;;;;;;7.35;2.78;;;5.80;99.90;;;;;;4972803;28;20074;-70
2023/04/10 02:49:43;;;;;;;10.15;4.57;;;5.80;99.90;;;;;;4968410;28;20045;-70
2023/04/10 02:52:08;;;;;;;6.90;3.22;;;5.70;99.90;;;;;;4971622;28;20125;-70
2023/04/10 02:54:34;;;;;;;7.38;3.83;;;5.70;99.90;;;;;;4969051;28;20391;-70
2023/04/10 02:57:00;;;;;;;7.72;2.60;;;5.70;99.90;;;;;;4971678;28;20030;-70
2023/04/10 02:59:26;;;;;;;9.13;4.00;;;5.80;99.90;;;;;;4970203;28;20464;-70
2023/04/10 03:01:52;;;;;;;11.80;3.90;;;6.00;99.90;;;;;;4971219;28;20101;-70
2023/04/10 03:04:18;;;;;;;7.65;3.03;;;6.20;99.90;;;;;;4971645;28;20034;-70
2023/04/10 03:06:44;;;;;;;8.65;4.15;;;6.30;99.90;;;;;;4969703;28;20047;-70
2023/04/10 03:09:10;;;;;;;6.55;2.88;;;6.40;99.90;;;;;;4971978;28;20034;-70
2023/04/10 03:11:35;;;;;;;6.70;3.78;;;6.40;99.90;;;;;;4968717;28;20034;-69
2023/04/10 03:14:01;;;;;;;5.63;2.83;;;6.40;99.90;;;;;;4972248;28;20035;-70
2023/04/10 03:16:27;;;;;;;7.05;3.65;;;6.70;99.90;;;;;;4982026;23;20576;-67
2023/04/10 03:18:53;;;;;;;7.30;3.85;;;6.50;99.90;;;;;;4972103;28;20623;-67
2023/04/10 03:21:19;;;;;;;6.68;3.40;;;6.70;99.90;;;;;;4965141;28;20058;-66
2023/04/10 03:23:45;;;;;;;6.25;3.13;;;6.70;99.90;;;;;;4972241;28;20030;-67
2023/04/10 03:26:11;;;;;;;8.13;3.78;;;6.60;99.90;;;;;;4965634;28;20226;-67
2023/04/10 03:28:36;;;;;;;5.55;2.92;;;6.50;99.90;;;;;;4972093;28;20474;-67
2023/04/10 03:31:04;;;;;;;7.57;3.13;;;6.50;99.90;;;;;;4965343;28;20054;-67
2023/04/10 03:33:29;;;;;;;8.52;2.80;;;6.40;99.90;;;;;;4971600;28;20384;-67
2023/04/10 03:35:56;;;;;;;7.07;3.08;;;6.20;99.90;;;;;;4965085;28;20039;-67
2023/04/10 03:38:22;;;;;;;7.40;3.75;;;6.00;99.90;;;;;;4971982;28;20015;-67
2023/04/10 03:40:48;;;;;;;6.93;3.47;;;6.00;99.90;;;;;;4965427;28;20039;-67
2023/04/10 03:43:13;;;;;;;7.40;3.35;;;5.60;99.90;;;;;;4971817;28;20739;-67
2023/04/10 03:45:39;;;;;;;7.13;3.10;;;5.60;99.90;;;;;;4969148;28;20058;-67
2023/04/10 03:48:05;;;;;;;6.32;3.60;;;5.50;99.90;;;;;;4971754;28;20046;-67
2023/04/10 03:50:31;;;;;;;6.00;3.40;;;5.50;99.90;;;;;;4966770;28;20035;-67
2023/04/10 03:52:56;;;;;;;8.05;4.07;;;5.50;99.90;;;;;;4970578;28;20031;-67
2023/04/10 03:55:22;;;;;;;9.77;3.63;;;5.50;99.90;;;;;;4968216;28;20357;-67
2023/04/10 03:57:48;;;;;;;8.27;3.70;;;5.60;99.90;;;;;;4967998;28;20050;-67
2023/04/10 04:00:15;;;;;;;13.18;4.13;;;5.60;99.90;;;;;;4967332;28;20038;-68
2023/04/10 04:02:42;;;;;;;6.65;3.85;;;5.80;99.90;;;;;;4968390;28;20558;-68
2023/04/10 04:05:08;;;;;;;12.15;4.88;;;5.70;99.90;;;;;;4952308;28;20038;-68
2023/04/10 04:07:34;;;;;;;8.20;4.60;;;5.70;99.90;;;;;;4966257;28;20038;-68
2023/04/10 04:10:00;;;;;;;8.68;4.50;;;5.70;99.90;;;;;;4968677;28;20031;-68
2023/04/10 04:12:26;;;;;;;10.02;4.95;;;5.80;99.90;;;;;;4966249;28;20033;-68
2023/04/10 04:14:52;;;;;;;7.00;3.72;;;5.90;99.90;;;;;;4970931;28;20026;-68
2023/04/10 04:17:18;;;;;;;13.10;4.18;;;6.00;99.90;;;;;;4965547;28;20093;-68
2023/04/10 04:19:43;;;;;;;8.93;2.95;;;6.00;99.90;;;;;;4970196;28;20049;-68
2023/04/10 04:22:10;;;;;;;9.90;4.35;;;6.00;99.90;;;;;;4965269;28;20110;-68
2023/04/10 04:24:36;;;;;;;6.65;3.83;;;6.10;99.90;;;;;;4971343;28;20038;-68
2023/04/10 04:27:02;;;;;;;8.80;3.58;;;6.20;99.90;;;;;;4963511;28;20097;-68
2023/04/10 04:29:28;;;;;;;9.82;4.38;;;6.30;99.90;;;;;;4971191;28;20402;-68
2023/04/10 04:31:54;;;;;;;9.40;4.32;;;6.30;99.90;;;;;;4964957;28;20049;-68
2023/04/10 04:34:20;;;;;;;9.85;3.92;;;6.30;99.90;;;;;;4970090;28;20035;-68
2023/04/10 04:36:45;;;;;;;12.85;3.75;;;6.10;99.90;;;;;;4965274;28;20031;-68
2023/04/10 04:39:11;;;;;;;7.70;4.43;;;6.10;99.90;;;;;;4970901;28;20026;-68
2023/04/10 04:41:37;;;;;;;7.78;3.28;;;6.10;99.90;;;;;;4965082;28;20019;-68
2023/04/10 04:44:04;;;;;;;8.32;4.07;;;6.00;99.90;;;;;;4971481;28;20506;-68
2023/04/10 04:46:30;;;;;;;9.55;4.20;;;6.00;99.90;;;;;;4963191;28;20065;-68
2023/04/10 04:48:56;;;;;;;8.05;3.92;;;6.00;99.90;;;;;;4973624;28;20483;-68
2023/04/10 04:51:22;;;;;;;8.68;4.13;;;6.00;99.90;;;;;;4967930;28;20490;-68
2023/04/10 04:53:47;;;;;;;8.35;3.65;;;6.00;99.90;;;;;;4973558;28;20027;-68
2023/04/10 04:56:13;;;;;;;9.45;3.58;;;6.00;99.90;;;;;;4968321;28;20039;-68
2023/04/10 04:58:39;;;;;;;7.97;3.78;;;6.00;99.90;;;;;;4974837;28;20034;-67
2023/04/10 05:01:06;;;;;;;6.00;3.80;;;5.90;99.90;;;;;;4967182;28;20042;-68
2023/04/10 05:03:32;;;;;;;8.77;3.92;;;6.00;99.90;;;;;;4974420;28;20517;-68
2023/04/10 05:05:58;;;;;;;7.30;3.08;;;6.00;99.90;;;;;;4967753;28;20044;-68
2023/04/10 05:08:24;;;;;;;9.88;4.22;;;6.00;99.90;;;;;;4974792;28;20042;-68
2023/04/10 05:10:50;;;;;;;10.40;4.25;;;6.10;99.90;;;;;;4967662;28;20043;-68
2023/04/10 05:13:16;;;;;;;10.13;4.50;;;6.10;99.90;;;;;;4974504;28;20110;-68
2023/04/10 05:15:43;;;;;;;10.35;4.43;;;6.10;99.90;;;;;;4969136;28;20447;-68
2023/04/10 05:18:10;;;;;;;6.90;4.22;;;6.20;99.90;;;;;;4974272;28;20029;-67
2023/04/10 05:20:36;;;;;;;10.00;4.55;;;6.20;99.90;;;;;;4968417;28;20023;-68
2023/04/10 05:23:02;;;;;;;10.70;4.18;;;6.30;99.90;;;;;;4973625;28;20561;-68
2023/04/10 05:25:28;;;;;;;6.53;3.42;;;6.30;99.90;;;;;;4969671;28;20106;-68
2023/04/10 05:27:53;;;;;;;9.10;3.97;;;6.30;99.90;;;;;;4972570;28;20026;-68
2023/04/10 05:30:19;;;;;;;6.93;3.60;;;6.30;99.90;;;;;;4970379;28;20514;-69
2023/04/10 05:32:45;;;;;;;7.70;3.45;;;6.30;99.90;;;;;;4970651;28;20042;-67
2023/04/10 05:35:11;;;;;;;8.25;3.40;;;6.30;99.90;;;;;;4970381;28;20027;-68
2023/04/10 05:37:37;;;;;;;10.93;4.38;;;6.30;99.90;;;;;;4968828;28;20102;-68
2023/04/10 05:40:03;;;;;;;9.43;4.50;;;6.50;99.90;;;;;;4955066;28;20050;-68
2023/04/10 05:42:29;;;;;;;6.40;3.40;;;6.70;99.90;;;;;;4968919;28;20023;-68
2023/04/10 05:44:55;;;;;;;9.02;3.85;;;6.80;99.90;;;;;;4972145;28;20517;-67
2023/04/10 05:47:21;;;;;;;10.95;5.03;;;6.90;99.90;;;;;;4967926;28;20054;-67
2023/04/10 05:49:47;;;;;;;11.60;4.28;;;7.00;99.90;;;;;;4972298;28;20039;-67
2023/04/10 05:52:12;;;;;;;12.25;4.25;;;7.00;99.90;;;;;;4968569;28;20098;-66
2023/04/10 05:54:38;;;;;;;9.13;4.05;;;7.00;99.90;;;;;;4972728;28;20031;-66
2023/04/10 05:57:04;;;;;;;8.15;4.00;;;7.00;99.90;;;;;;4970260;28;20043;-65
2023/04/10 05:59:30;;;;;;;6.75;3.70;;;6.90;99.90;;;;;;4972640;28;20095;-66
2023/04/10 06:01:56;;;;;;;8.85;4.80;;;7.00;99.90;;;;;;4967680;28;20102;-66
2023/04/10 06:04:22;;;;;;;8.23;4.25;;;7.00;99.90;;;;;;4971170;28;20038;-67
2023/04/10 06:06:48;;;;;;;8.88;4.13;;;7.00;99.90;;;;;;4966938;28;20556;-67
2023/04/10 06:09:14;;;;;;;7.00;4.07;;;7.10;99.90;;;;;;4973156;28;20114;-67
2023/04/10 06:11:40;;;;;;;7.65;3.75;;;7.20;99.90;;;;;;4972272;28;20042;-65
2023/04/10 06:14:06;;;;;;;6.78;4.35;;;7.40;99.90;;;;;;4973374;28;20049;-67
2023/04/10 06:16:32;;;;;;;8.15;4.28;;;7.40;99.90;;;;;;4971759;28;20030;-67
2023/04/10 06:18:57;;;;;;;8.57;3.60;;;7.30;99.90;;;;;;4973073;28;20027;-66
2023/04/10 06:21:23;;;;;;;10.65;3.95;;;7.40;99.90;;;;;;4948012;28;20053;-66
2023/04/10 06:23:49;;;;;;;10.68;4.88;;;7.50;99.90;;;;;;4972073;28;20066;-67
2023/04/10 06:26:15;;;;;;;10.10;5.60;;;7.60;99.90;;;;;;4954696;28;20035;-65
2023/04/10 06:28:41;;;;;;;11.85;4.45;;;7.60;99.90;;;;;;4973163;28;20027;-67
2023/04/10 06:31:07;;;;;;;6.93;3.53;;;7.60;99.90;;;;;;4954164;28;20062;-65
2023/04/10 06:33:36;;;;;;;10.43;4.85;;;7.70;99.90;;;;;;4972794;28;20101;-66
2023/04/10 06:36:03;;;;;;;7.65;4.55;;;7.80;99.90;;;;;;4971428;28;20038;-65
2023/04/10 06:38:29;;;;;;;10.20;4.60;;;7.90;99.90;;;;;;4971429;28;20537;-67
2023/04/10 06:40:55;;;;;;;9.45;4.35;;;8.00;99.90;;;;;;4981764;28;20027;-65
2023/04/10 06:43:21;;;;;;;8.00;4.45;;;8.20;99.90;;;;;;4972789;28;20494;-65
2023/04/10 06:45:47;;;;;;;12.15;4.47;;;8.30;99.90;;;;;;4971575;28;20081;-66
2023/04/10 06:48:13;;;;;;;10.18;4.32;;;8.30;99.90;;;;;;4972717;28;20030;-66
2023/04/10 06:50:38;;;;;;;6.70;3.47;;;8.50;99.90;;;;;;4971526;28;20030;-66
2023/04/10 06:53:04;;;;;;;8.48;3.42;;;8.60;99.90;;;;;;4971963;28;20039;-66
2023/04/10 06:55:30;;;;;;;7.40;3.92;;;8.70;99.90;;;;;;4972097;28;20105;-66
2023/04/10 06:57:56;;;;;;;10.68;5.20;;;8.80;99.90;;;;;;4971599;28;20106;-65
2023/04/10 07:00:22;;;;;;;10.32;4.35;;;8.90;99.90;;;;;;4972260;28;20031;-65
2023/04/10 07:02:48;;;;;;;9.07;5.07;;;9.00;99.90;;;;;;4967252;28;20062;-65
2023/04/10 07:05:15;;;;;;;10.13;5.10;;;9.10;99.90;;;;;;4971351;28;20039;-65
2023/04/10 07:07:41;;;;;;;9.50;4.35;;;9.10;99.90;;;;;;4971052;28;20085;-65
2023/04/10 07:10:08;;;;;;;9.40;3.85;;;9.20;99.90;;;;;;4952699;28;20035;-65
2023/04/10 07:12:33;;;;;;;9.68;3.55;;;9.30;99.90;;;;;;4968058;28;20026;-65
2023/04/10 07:14:59;;;;;;;7.88;3.03;;;9.40;99.90;;;;;;4968814;28;20030;-65
2023/04/10 07:17:25;;;;;;;9.05;3.78;;;9.50;99.90;;;;;;4958882;28;20682;-65
2023/04/10 07:19:51;;;;;;;8.60;4.10;;;9.70;99.90;;;;;;4963098;28;20059;-66
2023/04/10 07:22:17;;;;;;;9.55;3.88;;;9.80;99.90;;;;;;4965192;28;20522;-67
2023/04/10 07:24:43;;;;;;;7.85;3.25;;;9.90;99.90;;;;;;4968919;28;20053;-65
2023/04/10 07:27:09;;;;;;;7.60;4.10;;;9.90;99.90;;;;;;4970732;28;20490;-66
2023/04/10 07:29:35;;;;;;;9.43;3.47;;;10.00;99.90;;;;;;4966599;28;20042;-65
2023/04/10 07:32:00;;;;;;;8.40;4.18;;;10.10;99.90;;;;;;4971069;28;20085;-66
2023/04/10 07:34:26;;;;;;;6.90;3.45;;;10.20;99.90;;;;;;4964431;28;20027;-66
2023/04/10 07:36:52;;;;;;;6.18;2.95;;;10.30;99.90;;;;;;4963612;28;20035;-66
2023/04/10 07:39:18;;;;;;;6.88;3.15;;;10.30;99.90;;;;;;4971471;28;20027;-67
2023/04/10 07:41:44;;;;;;;8.25;4.05;;;10.40;99.90;;;;;;4971492;28;20665;-67
2023/04/10 07:44:10;;;;;;;8.25;3.63;;;10.40;99.90;;;;;;4964206;28;20034;-66
2023/04/10 07:46:36;;;;;;;7.15;3.45;;;10.50;99.90;;;;;;4971586;28;20510;-64
2023/04/10 07:49:02;;;;;;;5.15;2.88;;;10.60;99.90;;;;;;4962374;28;20038;-66
2023/04/10 07:51:28;;;;;;;6.00;3.17;;;10.80;99.90;;;;;;4970211;28;20403;-66
2023/04/10 07:53:55;;;;;;;6.45;3.00;;;10.80;99.90;;;;;;4963553;28;20037;-66
2023/04/10 07:56:21;;;;;;;8.32;3.50;;;11.00;99.90;;;;;;4971431;28;20034;-66
2023/04/10 07:58:48;;;;;;;6.47;3.20;;;11.20;99.90;;;;;;4969220;28;20034;-66
2023/04/10 08:01:14;;;;;;;7.60;2.90;;;11.30;99.90;;;;;;4970275;28;20062;-65
2023/04/10 08:03:42;;;;;;;5.00;2.38;;;11.50;99.90;;;;;;4945959;28;20053;-66
2023/04/10 08:06:09;;;;;;;6.30;2.58;;;11.70;99.90;;;;;;4971155;28;20047;-65
2023/04/10 08:08:40;;;;;;;3.70;2.17;;;11.90;99.90;;;;;;4961912;28;20023;-66
2023/04/10 08:11:28;;;;;;;3.88;2.30;;;12.00;99.20;;;;;;4969956;28;20035;-66
2023/04/10 08:13:57;;;;;;;4.05;1.83;;;12.20;99.20;;;;;;4962465;28;20479;-66
2023/04/10 08:16:30;;;;;;;4.07;2.45;;;12.20;98.10;;;;;;4970157;28;20394;-65
2023/04/10 08:18:56;;;;;;;6.28;2.65;;;12.30;98.40;;;;;;4963626;28;20031;-66
2023/04/10 08:21:25;;;;;;;3.90;1.70;;;12.40;98.50;;;;;;4971176;28;20506;-65
2023/04/10 08:23:59;;;;;;;4.22;2.00;;;12.50;97.70;;;;;;4965709;28;20042;-65
2023/04/10 08:26:26;;;;;;;4.82;2.38;;;12.50;97.20;;;;;;4975133;28;20122;-65
2023/04/10 08:28:57;;;;;;;4.00;1.55;;;12.40;96.70;;;;;;4972220;28;20037;-64
2023/04/10 08:31:26;;;;;;;5.07;2.17;;;12.50;97.00;;;;;;4974756;28;20031;-69
2023/04/10 08:33:51;;;;;;;4.97;2.35;;;12.50;96.40;;;;;;4967120;28;20490;-66
2023/04/10 08:36:17;;;;;;;5.05;2.42;;;12.50;96.50;;;;;;4974869;28;20073;-65
2023/04/10 08:38:44;;;;;;;5.75;2.22;;;12.80;96.90;;;;;;4965127;28;20041;-66
2023/04/10 08:41:15;;;;;;;3.13;1.70;;;12.80;96.10;;;;;;4967332;28;20109;-63
2023/04/10 08:43:42;;;;;;;3.72;2.17;;;12.80;95.30;;;;;;4970583;28;20506;-68
2023/04/10 08:46:08;;;;;;;3.33;1.90;;;12.90;95.40;;;;;;4974905;28;20234;-66
2023/04/10 08:49:01;;;;;;;4.15;2.03;;;12.90;95.00;;;;;;4964953;28;20594;-64
2023/04/10 08:51:42;;;;;;;4.93;2.67;;;12.90;95.50;;;;;;4974499;28;20045;-64
2023/04/10 08:54:17;;;;;;;3.95;2.20;;;13.00;95.80;;;;;;4965938;28;20035;-75
2023/04/10 08:56:48;;;;;;;5.55;2.72;;;13.00;95.20;;;;;;4974874;28;20039;-64
2023/04/10 08:59:15;;;;;;;6.35;2.30;;;13.10;95.40;;;;;;4975121;28;20039;-71
2023/04/10 09:01:41;;;;;;;5.18;2.47;;;13.20;95.30;;;;;;4974503;28;20026;-67
2023/04/10 09:04:06;;;;;;;4.93;2.53;;;13.30;95.50;;;;;;4963773;28;20043;-69
2023/04/10 09:06:32;;;;;;;5.13;2.58;;;13.30;94.60;;;;;;4969966;28;20042;-69
2023/04/10 09:08:58;;;;;;;5.10;2.08;;;13.60;95.80;;;;;;4972044;28;20035;-67
2023/04/10 09:11:59;;;;;;;3.78;1.55;;;13.50;94.30;;;;;;4974192;28;20113;-67
2023/04/10 09:14:28;;;;;;;5.28;2.33;;;13.70;94.50;;;;;;4968942;28;20069;-67
2023/04/10 09:17:22;;;;;;;2.72;1.60;;;13.70;94.10;;;;;;4956839;23;20087;-67
2023/04/10 09:19:51;;;;;;;5.05;1.58;;;13.70;94.10;;;;;;4937197;29;20035;-66
2023/04/10 09:22:28;;;;;;;4.15;2.63;;;13.80;94.80;;;;;;4934932;29;20059;-67
2023/04/10 09:24:54;;;;;;;4.18;2.08;;;13.90;94.50;;;;;;4934729;29;20034;-70
2023/04/10 09:27:34;;;;;;;4.82;2.30;;;13.90;93.30;;;;;;4917725;29;20036;-67
2023/04/10 09:30:01;;;;;;;2.97;1.45;;;13.90;93.30;;;;;;4915425;29;20035;-69
2023/04/10 09:32:42;;;;;;;4.68;2.05;;;14.00;93.30;;;;;;4914935;29;20087;-70
2023/04/10 09:35:13;;;;;;;4.15;1.80;;;13.80;93.60;;;;;;4920638;29;20056;-69
2023/04/10 09:37:42;;;;;;;4.05;2.35;;;13.90;93.30;;;;;;4913591;29;20032;-68
2023/04/10 09:40:31;;;;;;;4.18;1.77;;;14.10;93.40;;;;;;4912571;29;20063;-68
2023/04/10 09:42:56;;;;;;;2.75;1.38;;;14.20;92.40;;;;;;4916252;29;20372;-63
2023/04/10 09:45:22;;;;;;;3.72;1.90;;;14.30;91.70;;;;;;4909820;29;20088;-58
2023/04/10 09:48:05;;;;;;;3.28;1.27;;;14.30;92.00;;;;;;4914447;29;20102;-58
2023/04/10 09:50:41;;;;;;;4.03;1.92;;;14.50;91.80;;;;;;4912684;29;20040;-58
2023/04/10 09:53:18;;;;;;;5.70;2.35;;;14.60;92.60;;;;;;4908687;29;20035;-57
2023/04/10 09:55:49;;;;;;;3.85;1.85;;;14.70;92.10;;;;;;4915204;29;20032;-60
2023/04/10 09:58:16;;;;;;;4.20;1.75;;;14.60;91.10;;;;;;4913108;29;20103;-60
2023/04/10 10:00:47;;;;;;;4.32;2.13;;;14.60;91.60;;;;;;4915141;29;20028;-60
2023/04/10 10:03:19;;;;;;;3.33;2.15;;;14.60;91.30;;;;;;4914785;29;20039;-63
2023/04/10 10:05:49;;;;;;;3.33;1.67;;;14.70;91.90;;;;;;4914248;29;20039;-60
2023/04/10 10:08:16;;;;;;;5.38;2.00;;;14.90;91.20;;;;;;4913835;29;20119;-61
2023/04/10 10:10:53;;;;;;;3.58;1.60;;;15.00;91.00;;;;;;4914919;29;20043;-59
2023/04/10 10:13:26;;;;;;;6.57;2.10;;;15.00;90.60;;;;;;4908601;29;20036;-60
2023/04/10 10:16:11;;;;;;;4.65;1.90;;;15.00;90.70;;;;;;4907845;29;20263;-60
2023/04/10 10:18:53;;;;;;;3.00;1.60;;;15.20;91.30;;;;;;4915584;29;20096;-60
2023/04/10 10:21:20;;;;;;;2.22;1.17;;;15.30;90.50;;;;;;4913793;29;20039;-67
2023/04/10 10:23:52;;;;;;;4.47;1.48;;;15.40;90.60;;;;;;4913789;29;20099;-67
2023/04/10 10:26:18;;;;;;;3.58;2.15;;;15.60;91.20;;;;;;4912428;29;20088;-67
2023/04/10 10:28:46;;;;;;;4.65;1.58;;;15.60;89.90;;;;;;4915599;29;20404;-68
2023/04/10 10:31:13;;;;;;;5.40;1.88;;;15.80;90.10;;;;;;4911313;29;20520;-68
2023/04/10 10:33:39;;;;;;;3.83;1.77;;;15.90;89.50;;;;;;4915378;29;20036;-68
2023/04/10 10:36:07;;;;;;;2.65;1.70;;;16.00;89.20;;;;;;4894461;29;20024;-68
2023/04/10 10:38:36;;;;;;;3.10;1.55;;;16.10;90.20;;;;;;4915374;29;20032;-68
2023/04/10 10:41:24;;;;;;;7.65;2.08;;;16.40;87.90;;;;;;4913800;29;20040;-68
2023/04/10 10:45:05;;;;;;;3.83;1.67;;;16.40;86.60;;;;;;4914397;29;20047;-68
2023/04/10 10:47:33;;;;;;;;;;;16.40;86.80;;;;;;4889056;29;20050;-66
2023/04/10 10:50:02;;;;;;;2.13;1.23;;;16.70;89.20;;;;;;4905808;29;19911;-67
2023/04/10 10:52:45;;;;;;;3.17;1.90;;;16.80;86.30;;;;;;4909580;29;20050;-66
2023/04/10 10:55:38;;;;;;;5.03;1.52;;;16.80;85.20;;;;;;4897842;29;20080;-68
2023/04/10 10:58:08;;;;;;;7.90;1.77;;;16.80;86.20;;;;;;4914646;29;20095;-67
2023/04/10 11:00:49;;;;;;;4.28;1.73;;;16.90;85.40;;;;;;4914485;29;20148;-68
2023/04/10 11:03:14;;;;;;;5.05;2.50;;;17.40;86.80;;;;;;4908121;29;20640;-68
2023/04/10 11:05:54;;;;;;;4.10;1.50;;;17.20;82.40;;;;;;4914693;29;20126;-66
2023/04/10 11:08:32;;;;;;;4.60;1.55;;;17.30;83.60;;;;;;4909023;29;20129;-66
2023/04/10 11:11:22;;;;;;;3.08;1.70;;;17.50;83.60;;;;;;4910588;29;20044;-66
2023/04/10 11:13:50;;;;;;;4.53;2.15;;;17.40;83.30;;;;;;4914942;29;20055;-65
2023/04/10 11:16:18;;;;;;;3.92;1.70;;;17.60;82.50;;;;;;4914376;29;20024;-67
2023/04/10 11:18:44;;;;;;;3.38;1.52;;;17.60;81.50;;;;;;4913503;29;20036;-68
2023/04/10 11:21:21;;;;;;;3.00;1.60;;;17.60;83.00;;;;;;4913619;29;20043;-67
2023/04/10 11:23:51;;;;;;;2.78;1.30;;;17.90;80.40;;;;;;4914960;29;20036;-67
2023/04/10 11:26:44;;;;;;;5.30;1.70;;;17.90;81.90;;;;;;4918591;29;20036;-67
2023/04/10 11:29:16;;;;;;;2.85;1.50;;;18.10;81.40;;;;;;4904707;29;20051;-67
2023/04/10 11:32:03;;;;;;;2.08;1.05;;;18.30;78.80;;;;;;4906563;29;20547;-68
2023/04/10 11:34:32;;;;;;;2.92;1.48;;;18.30;77.10;;;;;;4913656;29;20372;-68
2023/04/10 11:37:01;;;;;;;3.65;1.65;;;18.10;78.40;;;;;;4905307;29;20107;-66
2023/04/10 11:39:29;;;;;;;2.72;1.17;;;18.30;80.20;;;;;;4914302;29;20040;-66
2023/04/10 11:41:56;;;;;;;2.47;1.45;;;18.50;78.90;;;;;;4906599;29;20024;-67
2023/04/10 11:44:25;;;;;;;2.85;1.10;;;18.60;77.40;;;;;;4914369;29;20370;-67
2023/04/10 11:46:51;;;;;;;2.25;1.38;;;18.70;75.80;;;;;;4906312;29;20036;-65
2023/04/10 11:49:24;;;;;;;2.17;1.08;;;18.80;72.90;;;;;;4913583;29;20116;-67
2023/04/10 11:51:51;;;;;;;3.28;1.20;;;18.70;74.30;;;;;;4913897;29;20138;-60
2023/04/10 11:54:19;;;;;;;3.95;1.25;;;18.70;73.80;;;;;;4914134;29;20540;-69
2023/04/10 11:57:10;;;;;;;2.15;1.10;;;18.50;70.60;;;;;;4917013;29;20104;-69
2023/04/10 11:59:36;;;;;;;2.83;1.50;;;18.70;71.60;;;;;;4916145;29;20445;-69
2023/04/10 12:02:15;;;;;;;3.40;1.40;;;18.60;71.20;;;;;;4920102;29;20067;-69
2023/04/10 12:04:42;;;;;;;3.30;1.38;;;18.40;72.60;;;;;;4919132;29;20681;-69
2023/04/10 12:07:09;;;;;;;2.30;1.10;;;18.50;72.80;;;;;;4912920;29;20027;-69
2023/04/10 12:09:35;;;;;;;3.33;1.52;;;18.70;74.60;;;;;;4918682;29;20028;-69
2023/04/10 12:12:03;;;;;;;6.30;1.30;;;18.70;72.90;;;;;;4911466;29;20035;-69
2023/04/10 12:14:32;;;;;;;3.15;1.35;;;18.60;73.80;;;;;;4920583;29;20127;-69
2023/04/10 12:17:00;;;;;;;3.58;1.48;;;18.60;73.20;;;;;;4911137;29;20035;-69
2023/04/10 12:19:26;;;;;;;3.38;1.25;;;18.60;74.20;;;;;;4919228;29;20036;-69
2023/04/10 12:21:53;;;;;;;4.82;1.40;;;18.70;73.20;;;;;;4912491;29;20122;-69
2023/04/10 12:24:52;;;;;;;4.35;1.50;;;19.10;72.50;;;;;;4919325;29;20040;-70
2023/04/10 12:27:26;;;;;;;1.92;1.02;;;18.90;73.50;;;;;;4924595;29;20401;-69
2023/04/10 12:29:55;;;;;;;2.40;1.38;;;18.90;69.70;;;;;;4918677;29;20047;-69
2023/04/10 12:32:22;;;;;;;3.03;1.42;;;18.80;70.80;;;;;;4914350;29;20501;-69
2023/04/10 12:34:56;;;;;;;2.60;1.25;;;19.00;73.10;;;;;;4919560;29;20063;-69
2023/04/10 12:37:21;;;;;;;2.08;1.25;;;18.90;71.50;;;;;;4919000;29;20028;-70
2023/04/10 12:39:47;;;;;;;2.28;1.42;;;19.20;72.20;;;;;;4919419;29;20039;-69
2023/04/10 12:42:25;;;;;;;2.72;1.23;;;19.30;69.90;;;;;;4920301;29;20032;-70
2023/04/10 12:44:59;;;;;;;2.25;1.13;;;19.80;69.90;;;;;;4918146;29;20176;-70
2023/04/10 12:47:27;;;;;;;4.10;1.35;;;20.20;69.70;;;;;;4914594;29;20083;-70
2023/04/10 12:50:08;;;;;;;2.38;1.35;;;20.50;67.40;;;;;;4917174;29;20072;-70
2023/04/10 12:52:36;;;;;;;2.58;1.20;;;20.50;66.90;;;;;;4916025;29;20511;-69
2023/04/10 12:55:31;;;;;;;2.08;1.25;;;20.50;66.60;;;;;;4917600;29;20385;-69
2023/04/10 12:57:57;;;;;;;2.75;0.82;;;20.30;66.80;;;;;;4912210;29;20051;-69
2023/04/10 13:00:24;;;;;;;2.55;1.15;;;20.30;68.10;;;;;;4914367;29;20028;-69
2023/04/10 13:02:50;;;;;;;4.32;1.00;;;20.60;66.20;;;;;;4917928;29;20028;-69
2023/04/10 13:05:15;;;;;;;1.02;0.77;;;20.80;65.20;;;;;;4914540;29;20693;-69